sensor_id;sensor_type;location;lat;lon;timestamp;pressure;altitude;pressure_sealevel;temperature;humidity
50852;BME280;43953;45.508;-122.806;2024-03-22T00:00:00;100936.69;;;24.71;37.05
50852;BME280;43953;45.508;-122.806;2024-03-22T00:00:31;100935.06;;;24.70;37.19
50852;BME280;43953;45.508;-122.806;2024-03-22T00:01:03;100939.72;;;24.69;37.19
50852;BME280;43953;45.508;-122.806;2024-03-22T00:01:35;100939.72;;;24.69;37.00
50852;BME280;43953;45.508;-122.806;2024-03-22T00:02:07;100936.16;;;24.69;37.01
50852;BME280;43953;45.508;-122.806;2024-03-22T00:02:40;100938.91;;;24.69;37.09
50852;BME280;43953;45.508;-122.806;2024-03-22T00:03:12;100940.84;;;24.68;37.03
50852;BME280;43953;45.508;-122.806;2024-03-22T00:03:43;100938.09;;;24.68;37.00
50852;BME280;43953;45.508;-122.806;2024-03-22T00:04:15;100941.16;;;24.67;37.32
50852;BME280;43953;45.508;-122.806;2024-03-22T00:04:47;100935.66;;;24.67;37.10
50852;BME280;43953;45.508;-122.806;2024-03-22T00:05:19;100942.25;;;24.66;37.33
50852;BME280;43953;45.508;-122.806;2024-03-22T00:05:52;100937.88;;;24.65;37.19
50852;BME280;43953;45.508;-122.806;2024-03-22T00:06:24;100937.88;;;24.65;37.44
50852;BME280;43953;45.508;-122.806;2024-03-22T00:06:56;100940.63;;;24.65;37.63
50852;BME280;43953;45.508;-122.806;2024-03-22T00:07:27;100936.22;;;24.64;37.37
50852;BME280;43953;45.508;-122.806;2024-03-22T00:07:59;100940.09;;;24.63;37.36
50852;BME280;43953;45.508;-122.806;2024-03-22T00:08:31;100940.91;;;24.63;37.40
50852;BME280;43953;45.508;-122.806;2024-03-22T00:09:03;100940.41;;;24.61;37.63
50852;BME280;43953;45.508;-122.806;2024-03-22T00:09:35;100941.22;;;24.62;37.45
50852;BME280;43953;45.508;-122.806;2024-03-22T00:10:07;100936.59;;;24.57;37.65
50852;BME280;43953;45.508;-122.806;2024-03-22T00:10:38;100938.47;;;24.62;37.51
50852;BME280;43953;45.508;-122.806;2024-03-22T00:11:10;100950.91;;;24.59;37.53
50852;BME280;43953;45.508;-122.806;2024-03-22T00:11:42;100951.72;;;24.60;37.54
50852;BME280;43953;45.508;-122.806;2024-03-22T00:12:14;100951.72;;;24.60;37.54
50852;BME280;43953;45.508;-122.806;2024-03-22T00:12:46;100948.97;;;24.60;37.57
50852;BME280;43953;45.508;-122.806;2024-03-22T00:13:18;100953.66;;;24.59;37.45
50852;BME280;43953;45.508;-122.806;2024-03-22T00:13:49;100950.91;;;24.59;37.51
50852;BME280;43953;45.508;-122.806;2024-03-22T00:14:21;100961.91;;;24.59;37.79
50852;BME280;43953;45.508;-122.806;2024-03-22T00:14:53;100957.22;;;24.60;37.58
50852;BME280;43953;45.508;-122.806;2024-03-22T00:15:25;100949.78;;;24.60;37.49
50852;BME280;43953;45.508;-122.806;2024-03-22T00:15:57;100953.66;;;24.59;37.50
50852;BME280;43953;45.508;-122.806;2024-03-22T00:16:29;100948.16;;;24.59;37.67
50852;BME280;43953;45.508;-122.806;2024-03-22T00:17:01;100956.41;;;24.59;37.62
50852;BME280;43953;45.508;-122.806;2024-03-22T00:17:32;100961.91;;;24.59;37.38
50852;BME280;43953;45.508;-122.806;2024-03-22T00:18:04;100957.22;;;24.60;37.36
50852;BME280;43953;45.508;-122.806;2024-03-22T00:18:36;100954.78;;;24.58;37.59
50852;BME280;43953;45.508;-122.806;2024-03-22T00:19:08;100955.88;;;24.57;37.53
50852;BME280;43953;45.508;-122.806;2024-03-22T00:19:39;100953.13;;;24.57;37.58
50852;BME280;43953;45.508;-122.806;2024-03-22T00:20:11;100958.63;;;24.57;37.72
50852;BME280;43953;45.508;-122.806;2024-03-22T00:20:43;100963.31;;;24.57;37.54
50852;BME280;43953;45.508;-122.806;2024-03-22T00:21:15;100957.81;;;24.57;37.70
50852;BME280;43953;45.508;-122.806;2024-03-22T00:21:46;100963.31;;;24.57;37.47
50852;BME280;43953;45.508;-122.806;2024-03-22T00:22:18;100964.13;;;24.57;37.55
50852;BME280;43953;45.508;-122.806;2024-03-22T00:22:50;100960.56;;;24.57;37.59
50852;BME280;43953;45.508;-122.806;2024-03-22T00:23:21;100953.13;;;24.57;37.52
50852;BME280;43953;45.508;-122.806;2024-03-22T00:23:56;100962.50;;;24.56;37.52
50852;BME280;43953;45.508;-122.806;2024-03-22T00:24:28;100952.31;;;24.57;37.63
50852;BME280;43953;45.508;-122.806;2024-03-22T00:25:00;100951.50;;;24.56;37.61
50852;BME280;43953;45.508;-122.806;2024-03-22T00:25:31;100950.69;;;24.56;37.34
50852;BME280;43953;45.508;-122.806;2024-03-22T00:26:03;100954.25;;;24.56;37.39
50852;BME280;43953;45.508;-122.806;2024-03-22T00:26:35;100946.81;;;24.57;37.42
50852;BME280;43953;45.508;-122.806;2024-03-22T00:27:07;100951.50;;;24.56;37.51
50852;BME280;43953;45.508;-122.806;2024-03-22T00:27:38;100958.63;;;24.57;37.53
50852;BME280;43953;45.508;-122.806;2024-03-22T00:28:10;100949.56;;;24.57;37.53
50852;BME280;43953;45.508;-122.806;2024-03-22T00:28:42;100950.38;;;24.57;37.54
50852;BME280;43953;45.508;-122.806;2024-03-22T00:29:14;100944.88;;;24.57;37.65
50852;BME280;43953;45.508;-122.806;2024-03-22T00:29:45;100953.94;;;24.58;37.60
50852;BME280;43953;45.508;-122.806;2024-03-22T00:30:17;100953.13;;;24.57;37.55
50852;BME280;43953;45.508;-122.806;2024-03-22T00:30:49;100947.63;;;24.57;37.74
50852;BME280;43953;45.508;-122.806;2024-03-22T00:31:20;100947.94;;;24.56;37.60
50852;BME280;43953;45.508;-122.806;2024-03-22T00:31:52;100952.31;;;24.57;37.65
50852;BME280;43953;45.508;-122.806;2024-03-22T00:32:24;100949.56;;;24.57;37.67
50852;BME280;43953;45.508;-122.806;2024-03-22T00:32:55;100950.38;;;24.57;37.50
50852;BME280;43953;45.508;-122.806;2024-03-22T00:33:27;100951.50;;;24.56;37.74
50852;BME280;43953;45.508;-122.806;2024-03-22T00:33:59;100946.00;;;24.56;37.75
50852;BME280;43953;45.508;-122.806;2024-03-22T00:34:31;100950.38;;;24.57;37.48
50852;BME280;43953;45.508;-122.806;2024-03-22T00:35:02;100947.63;;;24.57;37.55
50852;BME280;43953;45.508;-122.806;2024-03-22T00:35:34;100952.31;;;24.57;37.70
50852;BME280;43953;45.508;-122.806;2024-03-22T00:36:06;100950.38;;;24.57;37.72
50852;BME280;43953;45.508;-122.806;2024-03-22T00:36:38;100950.38;;;24.57;37.69
50852;BME280;43953;45.508;-122.806;2024-03-22T00:37:10;100953.13;;;24.57;37.68
50852;BME280;43953;45.508;-122.806;2024-03-22T00:37:42;100950.38;;;24.57;37.59
50852;BME280;43953;45.508;-122.806;2024-03-22T00:38:13;100953.94;;;24.58;37.73
50852;BME280;43953;45.508;-122.806;2024-03-22T00:38:46;100949.56;;;24.57;37.75
50852;BME280;43953;45.508;-122.806;2024-03-22T00:39:18;100953.13;;;24.57;37.67
50852;BME280;43953;45.508;-122.806;2024-03-22T00:39:50;100953.94;;;24.58;37.57
50852;BME280;43953;45.508;-122.806;2024-03-22T00:40:21;100955.06;;;24.57;37.69
50852;BME280;43953;45.508;-122.806;2024-03-22T00:40:53;100956.69;;;24.58;37.75
50852;BME280;43953;45.508;-122.806;2024-03-22T00:41:25;100951.19;;;24.58;37.74
50852;BME280;43953;45.508;-122.806;2024-03-22T00:41:56;100955.59;;;24.59;37.87
50852;BME280;43953;45.508;-122.806;2024-03-22T00:42:28;100952.03;;;24.58;37.73
50852;BME280;43953;45.508;-122.806;2024-03-22T00:43:00;100950.38;;;24.57;37.75
50852;BME280;43953;45.508;-122.806;2024-03-22T00:43:32;100961.09;;;24.59;37.65
50852;BME280;43953;45.508;-122.806;2024-03-22T00:44:04;100951.19;;;24.58;37.66
50852;BME280;43953;45.508;-122.806;2024-03-22T00:44:35;100946.00;;;24.56;37.89
50852;BME280;43953;45.508;-122.806;2024-03-22T00:45:07;100945.78;;;24.52;38.30
50852;BME280;43953;45.508;-122.806;2024-03-22T00:45:39;100949.63;;;24.51;37.92
50852;BME280;43953;45.508;-122.806;2024-03-22T00:46:11;100945.78;;;24.52;38.01
50852;BME280;43953;45.508;-122.806;2024-03-22T00:46:42;100951.28;;;24.52;37.83
50852;BME280;43953;45.508;-122.806;2024-03-22T00:47:14;100948.53;;;24.52;37.83
50852;BME280;43953;45.508;-122.806;2024-03-22T00:47:46;100953.19;;;24.52;37.95
50852;BME280;43953;45.508;-122.806;2024-03-22T00:48:18;100958.69;;;24.52;37.86
50852;BME280;43953;45.508;-122.806;2024-03-22T00:48:49;100948.00;;;24.50;37.98
50852;BME280;43953;45.508;-122.806;2024-03-22T00:49:21;100955.13;;;24.51;38.07
50852;BME280;43953;45.508;-122.806;2024-03-22T00:49:53;100949.63;;;24.51;38.02
50852;BME280;43953;45.508;-122.806;2024-03-22T00:50:24;100952.38;;;24.51;38.12
50852;BME280;43953;45.508;-122.806;2024-03-22T00:50:56;100955.13;;;24.51;37.84
50852;BME280;43953;45.508;-122.806;2024-03-22T00:51:28;100949.63;;;24.51;37.97
50852;BME280;43953;45.508;-122.806;2024-03-22T00:52:00;100944.94;;;24.52;37.80
50852;BME280;43953;45.508;-122.806;2024-03-22T00:52:31;100955.94;;;24.52;38.04
50852;BME280;43953;45.508;-122.806;2024-03-22T00:53:03;100951.28;;;24.52;38.01
50852;BME280;43953;45.508;-122.806;2024-03-22T00:53:36;100950.16;;;24.54;37.82
50852;BME280;43953;45.508;-122.806;2024-03-22T00:54:08;100951.28;;;24.52;37.94
50852;BME280;43953;45.508;-122.806;2024-03-22T00:54:40;100946.59;;;24.53;37.79
50852;BME280;43953;45.508;-122.806;2024-03-22T00:55:11;100949.34;;;24.53;37.93
50852;BME280;43953;45.508;-122.806;2024-03-22T00:55:43;100950.16;;;24.54;37.89
50852;BME280;43953;45.508;-122.806;2024-03-22T00:56:15;100947.41;;;24.54;37.78
50852;BME280;43953;45.508;-122.806;2024-03-22T00:56:47;100942.72;;;24.54;37.84
50852;BME280;43953;45.508;-122.806;2024-03-22T00:57:19;100944.66;;;24.54;37.79
50852;BME280;43953;45.508;-122.806;2024-03-22T00:57:51;100947.41;;;24.54;37.82
50852;BME280;43953;45.508;-122.806;2024-03-22T00:58:23;100948.22;;;24.54;37.92
50852;BME280;43953;45.508;-122.806;2024-03-22T00:58:54;100949.34;;;24.53;37.77
50852;BME280;43953;45.508;-122.806;2024-03-22T00:59:26;100944.66;;;24.54;37.79
50852;BME280;43953;45.508;-122.806;2024-03-22T00:59:58;100943.84;;;24.53;37.91
50852;BME280;43953;45.508;-122.806;2024-03-22T01:00:29;100947.41;;;24.54;37.86
50852;BME280;43953;45.508;-122.806;2024-03-22T01:01:01;100937.50;;;24.52;37.86
50852;BME280;43953;45.508;-122.806;2024-03-22T01:01:33;100941.09;;;24.53;37.87
50852;BME280;43953;45.508;-122.806;2024-03-22T01:02:05;100941.91;;;24.54;37.89
50852;BME280;43953;45.508;-122.806;2024-03-22T01:02:36;100943.53;;;24.55;37.84
50852;BME280;43953;45.508;-122.806;2024-03-22T01:03:08;100930.88;;;24.54;38.00
50852;BME280;43953;45.508;-122.806;2024-03-22T01:03:40;100943.84;;;24.53;38.15
50852;BME280;43953;45.508;-122.806;2024-03-22T01:04:12;100938.84;;;24.55;37.90
50852;BME280;43953;45.508;-122.806;2024-03-22T01:04:44;100943.53;;;24.55;37.88
50852;BME280;43953;45.508;-122.806;2024-03-22T01:05:16;100931.69;;;24.54;38.07
50852;BME280;43953;45.508;-122.806;2024-03-22T01:05:48;100938.84;;;24.55;38.05
50852;BME280;43953;45.508;-122.806;2024-03-22T01:06:20;100930.88;;;24.54;38.12
50852;BME280;43953;45.508;-122.806;2024-03-22T01:06:56;100925.38;;;24.54;38.06
50852;BME280;43953;45.508;-122.806;2024-03-22T01:07:27;100932.50;;;24.55;38.20
50852;BME280;43953;45.508;-122.806;2024-03-22T01:07:59;100927.00;;;24.55;37.95
50852;BME280;43953;45.508;-122.806;2024-03-22T01:08:31;100922.34;;;24.55;38.20
50852;BME280;43953;45.508;-122.806;2024-03-22T01:09:03;100926.19;;;24.54;38.18
50852;BME280;43953;45.508;-122.806;2024-03-22T01:09:34;100925.91;;;24.56;38.28
50852;BME280;43953;45.508;-122.806;2024-03-22T01:10:06;100923.44;;;24.54;38.08
50852;BME280;43953;45.508;-122.806;2024-03-22T01:10:38;100921.50;;;24.55;38.12
50852;BME280;43953;45.508;-122.806;2024-03-22T01:11:11;100930.59;;;24.55;38.05
50852;BME280;43953;45.508;-122.806;2024-03-22T01:11:42;100927.84;;;24.55;37.96
50852;BME280;43953;45.508;-122.806;2024-03-22T01:12:14;100925.09;;;24.55;38.12
50852;BME280;43953;45.508;-122.806;2024-03-22T01:12:46;100931.69;;;24.54;38.30
50852;BME280;43953;45.508;-122.806;2024-03-22T01:13:17;100917.94;;;24.54;38.34
50852;BME280;43953;45.508;-122.806;2024-03-22T01:13:49;100926.19;;;24.54;38.15
50852;BME280;43953;45.508;-122.806;2024-03-22T01:14:21;100921.50;;;24.55;38.42
50852;BME280;43953;45.508;-122.806;2024-03-22T01:14:54;100919.59;;;24.55;38.31
50852;BME280;43953;45.508;-122.806;2024-03-22T01:15:26;100921.50;;;24.55;38.48
50852;BME280;43953;45.508;-122.806;2024-03-22T01:15:57;100917.13;;;24.54;38.44
50852;BME280;43953;45.508;-122.806;2024-03-22T01:16:29;100921.50;;;24.55;38.42
50852;BME280;43953;45.508;-122.806;2024-03-22T01:17:01;100923.16;;;24.56;38.50
50852;BME280;43953;45.508;-122.806;2024-03-22T01:17:33;100922.34;;;24.55;38.51
50852;BME280;43953;45.508;-122.806;2024-03-22T01:18:04;100922.03;;;24.57;38.47
50852;BME280;43953;45.508;-122.806;2024-03-22T01:18:37;100918.47;;;24.56;38.91
50852;BME280;43953;45.508;-122.806;2024-03-22T01:19:09;100919.28;;;24.57;38.57
50852;BME280;43953;45.508;-122.806;2024-03-22T01:19:41;100917.66;;;24.56;38.58
50852;BME280;43953;45.508;-122.806;2024-03-22T01:20:13;100922.03;;;24.57;38.51
50852;BME280;43953;45.508;-122.806;2024-03-22T01:20:44;100917.06;;;24.59;38.46
50852;BME280;43953;45.508;-122.806;2024-03-22T01:21:17;100920.91;;;24.58;38.37
50852;BME280;43953;45.508;-122.806;2024-03-22T01:21:49;100918.16;;;24.58;38.62
50852;BME280;43953;45.508;-122.806;2024-03-22T01:22:21;100923.66;;;24.58;38.76
50852;BME280;43953;45.508;-122.806;2024-03-22T01:22:52;100922.03;;;24.57;38.56
50852;BME280;43953;45.508;-122.806;2024-03-22T01:23:24;100913.78;;;24.57;38.64
50852;BME280;43953;45.508;-122.806;2024-03-22T01:23:56;100917.34;;;24.57;38.43
50852;BME280;43953;45.508;-122.806;2024-03-22T01:24:27;100920.91;;;24.58;38.57
50852;BME280;43953;45.508;-122.806;2024-03-22T01:24:59;100920.91;;;24.58;38.66
50852;BME280;43953;45.508;-122.806;2024-03-22T01:25:31;100925.31;;;24.59;38.44
50852;BME280;43953;45.508;-122.806;2024-03-22T01:26:03;100922.56;;;24.59;38.66
50852;BME280;43953;45.508;-122.806;2024-03-22T01:26:34;100920.91;;;24.58;38.54
50852;BME280;43953;45.508;-122.806;2024-03-22T01:27:06;100919.00;;;24.58;38.70
50852;BME280;43953;45.508;-122.806;2024-03-22T01:27:38;100921.75;;;24.58;38.56
50852;BME280;43953;45.508;-122.806;2024-03-22T01:28:09;100921.75;;;24.58;38.73
50852;BME280;43953;45.508;-122.806;2024-03-22T01:28:41;100921.75;;;24.58;38.49
50852;BME280;43953;45.508;-122.806;2024-03-22T01:29:13;100917.06;;;24.59;38.60
50852;BME280;43953;45.508;-122.806;2024-03-22T01:29:46;100918.69;;;24.60;38.55
50852;BME280;43953;45.508;-122.806;2024-03-22T01:30:18;100922.25;;;24.60;38.59
50852;BME280;43953;45.508;-122.806;2024-03-22T01:30:50;100918.69;;;24.60;38.55
50852;BME280;43953;45.508;-122.806;2024-03-22T01:31:21;100918.69;;;24.60;38.69
50852;BME280;43953;45.508;-122.806;2024-03-22T01:31:53;100918.69;;;24.60;38.66
50852;BME280;43953;45.508;-122.806;2024-03-22T01:32:25;100924.19;;;24.60;38.78
50852;BME280;43953;45.508;-122.806;2024-03-22T01:32:56;100922.56;;;24.59;38.77
50852;BME280;43953;45.508;-122.806;2024-03-22T01:33:28;100916.75;;;24.60;38.62
50852;BME280;43953;45.508;-122.806;2024-03-22T01:34:00;100918.69;;;24.60;38.77
50852;BME280;43953;45.508;-122.806;2024-03-22T01:34:32;100913.19;;;24.60;38.82
50852;BME280;43953;45.508;-122.806;2024-03-22T01:35:04;100920.31;;;24.61;38.77
50852;BME280;43953;45.508;-122.806;2024-03-22T01:35:35;100914.81;;;24.61;38.72
50852;BME280;43953;45.508;-122.806;2024-03-22T01:36:07;100919.50;;;24.60;38.87
50852;BME280;43953;45.508;-122.806;2024-03-22T01:36:39;100914.00;;;24.60;38.91
50852;BME280;43953;45.508;-122.806;2024-03-22T01:37:11;100904.91;;;24.60;39.06
50852;BME280;43953;45.508;-122.806;2024-03-22T01:37:42;100911.22;;;24.60;39.01
50852;BME280;43953;45.508;-122.806;2024-03-22T01:38:14;100914.00;;;24.60;38.96
50852;BME280;43953;45.508;-122.806;2024-03-22T01:38:46;100915.66;;;24.61;38.76
50852;BME280;43953;45.508;-122.806;2024-03-22T01:39:21;100921.16;;;24.61;38.89
50852;BME280;43953;45.508;-122.806;2024-03-22T01:39:53;100911.22;;;24.60;38.76
50852;BME280;43953;45.508;-122.806;2024-03-22T01:40:24;100913.72;;;24.62;38.83
50852;BME280;43953;45.508;-122.806;2024-03-22T01:40:56;100917.28;;;24.62;38.84
50852;BME280;43953;45.508;-122.806;2024-03-22T01:41:28;100921.97;;;24.62;38.98
50852;BME280;43953;45.508;-122.806;2024-03-22T01:41:59;100914.81;;;24.61;38.91
50852;BME280;43953;45.508;-122.806;2024-03-22T01:42:31;100909.28;;;24.61;38.97
50852;BME280;43953;45.508;-122.806;2024-03-22T01:43:03;100916.47;;;24.62;38.87
50852;BME280;43953;45.508;-122.806;2024-03-22T01:43:35;100910.94;;;24.62;39.06
50852;BME280;43953;45.508;-122.806;2024-03-22T01:44:06;100910.13;;;24.61;39.03
50852;BME280;43953;45.508;-122.806;2024-03-22T01:44:38;100916.47;;;24.62;38.93
50852;BME280;43953;45.508;-122.806;2024-03-22T01:45:11;100913.72;;;24.62;38.82
50852;BME280;43953;45.508;-122.806;2024-03-22T01:45:45;100909.28;;;24.61;38.97
50852;BME280;43953;45.508;-122.806;2024-03-22T01:46:17;100916.47;;;24.62;39.01
50852;BME280;43953;45.508;-122.806;2024-03-22T01:46:49;100914.53;;;24.62;39.03
50852;BME280;43953;45.508;-122.806;2024-03-22T01:47:21;100907.38;;;24.61;38.94
50852;BME280;43953;45.508;-122.806;2024-03-22T01:47:53;100905.44;;;24.62;39.04
50852;BME280;43953;45.508;-122.806;2024-03-22T01:48:26;100910.94;;;24.62;39.34
50852;BME280;43953;45.508;-122.806;2024-03-22T01:48:58;100921.16;;;24.61;39.11
50852;BME280;43953;45.508;-122.806;2024-03-22T01:49:30;100914.81;;;24.61;39.02
50852;BME280;43953;45.508;-122.806;2024-03-22T01:50:02;100910.94;;;24.62;39.08
50852;BME280;43953;45.508;-122.806;2024-03-22T01:50:34;100916.75;;;24.60;39.24
50852;BME280;43953;45.508;-122.806;2024-03-22T01:51:06;100915.66;;;24.61;39.09
50852;BME280;43953;45.508;-122.806;2024-03-22T01:51:39;100909.28;;;24.61;39.14
50852;BME280;43953;45.508;-122.806;2024-03-22T01:52:11;100909.28;;;24.61;39.11
50852;BME280;43953;45.508;-122.806;2024-03-22T01:52:42;100915.66;;;24.61;39.23
50852;BME280;43953;45.508;-122.806;2024-03-22T01:53:14;100914.81;;;24.61;39.25
50852;BME280;43953;45.508;-122.806;2024-03-22T01:53:46;100914.81;;;24.61;39.34
50852;BME280;43953;45.508;-122.806;2024-03-22T01:54:20;100914.00;;;24.60;39.21
50852;BME280;43953;45.508;-122.806;2024-03-22T01:54:52;100914.00;;;24.60;39.18
50852;BME280;43953;45.508;-122.806;2024-03-22T01:55:24;100914.81;;;24.61;39.12
50852;BME280;43953;45.508;-122.806;2024-03-22T01:55:55;100917.56;;;24.61;39.31
50852;BME280;43953;45.508;-122.806;2024-03-22T01:56:27;100909.28;;;24.61;39.25
50852;BME280;43953;45.508;-122.806;2024-03-22T01:57:00;100907.66;;;24.60;39.19
50852;BME280;43953;45.508;-122.806;2024-03-22T01:57:33;100908.47;;;24.60;39.30
50852;BME280;43953;45.508;-122.806;2024-03-22T01:58:05;100912.06;;;24.61;39.14
50852;BME280;43953;45.508;-122.806;2024-03-22T01:58:38;100911.22;;;24.60;39.20
50852;BME280;43953;45.508;-122.806;2024-03-22T01:59:09;100914.81;;;24.61;39.26
50852;BME280;43953;45.508;-122.806;2024-03-22T01:59:42;100913.19;;;24.60;39.40
50852;BME280;43953;45.508;-122.806;2024-03-22T02:00:14;100915.94;;;24.60;39.38
50852;BME280;43953;45.508;-122.806;2024-03-22T02:00:46;100908.47;;;24.60;39.31
50852;BME280;43953;45.508;-122.806;2024-03-22T02:01:18;100909.28;;;24.61;39.16
50852;BME280;43953;45.508;-122.806;2024-03-22T02:01:50;100912.06;;;24.61;39.17
50852;BME280;43953;45.508;-122.806;2024-03-22T02:02:22;100918.41;;;24.61;39.18
50852;BME280;43953;45.508;-122.806;2024-03-22T02:02:53;100914.81;;;24.61;39.20
50852;BME280;43953;45.508;-122.806;2024-03-22T02:03:25;100914.81;;;24.61;39.43
50852;BME280;43953;45.508;-122.806;2024-03-22T02:03:57;100915.66;;;24.61;39.11
50852;BME280;43953;45.508;-122.806;2024-03-22T02:04:29;100918.41;;;24.61;39.21
50852;BME280;43953;45.508;-122.806;2024-03-22T02:05:12;100913.72;;;24.62;39.30
50852;BME280;43953;45.508;-122.806;2024-03-22T02:05:44;100916.47;;;24.62;39.31
50852;BME280;43953;45.508;-122.806;2024-03-22T02:06:15;100917.56;;;24.61;39.38
50852;BME280;43953;45.508;-122.806;2024-03-22T02:06:47;100915.66;;;24.61;39.26
50852;BME280;43953;45.508;-122.806;2024-03-22T02:07:19;100916.75;;;24.60;39.43
50852;BME280;43953;45.508;-122.806;2024-03-22T02:07:50;100915.66;;;24.61;39.30
50852;BME280;43953;45.508;-122.806;2024-03-22T02:08:22;100916.47;;;24.62;39.15
50852;BME280;43953;45.508;-122.806;2024-03-22T02:08:54;100912.06;;;24.61;39.37
50852;BME280;43953;45.508;-122.806;2024-03-22T02:09:26;100914.81;;;24.61;39.30
50852;BME280;43953;45.508;-122.806;2024-03-22T02:09:58;100916.47;;;24.62;39.35
50852;BME280;43953;45.508;-122.806;2024-03-22T02:10:30;100919.22;;;24.62;39.34
50852;BME280;43953;45.508;-122.806;2024-03-22T02:11:02;100921.97;;;24.62;39.24
50852;BME280;43953;45.508;-122.806;2024-03-22T02:11:34;100914.81;;;24.61;39.40
50852;BME280;43953;45.508;-122.806;2024-03-22T02:12:08;100920.31;;;24.61;39.28
50852;BME280;43953;45.508;-122.806;2024-03-22T02:12:40;100915.66;;;24.61;39.34
50852;BME280;43953;45.508;-122.806;2024-03-22T02:13:12;100915.94;;;24.60;39.32
50852;BME280;43953;45.508;-122.806;2024-03-22T02:13:44;100916.47;;;24.62;39.34
50852;BME280;43953;45.508;-122.806;2024-03-22T02:14:16;100907.38;;;24.61;39.23
50852;BME280;43953;45.508;-122.806;2024-03-22T02:14:48;100912.06;;;24.61;39.27
50852;BME280;43953;45.508;-122.806;2024-03-22T02:15:19;100916.47;;;24.62;39.29
50852;BME280;43953;45.508;-122.806;2024-03-22T02:15:51;100910.94;;;24.62;39.29
50852;BME280;43953;45.508;-122.806;2024-03-22T02:16:23;100909.81;;;24.63;39.18
50852;BME280;43953;45.508;-122.806;2024-03-22T02:16:54;100917.28;;;24.62;39.19
50852;BME280;43953;45.508;-122.806;2024-03-22T02:17:26;100905.44;;;24.62;39.03
50852;BME280;43953;45.508;-122.806;2024-03-22T02:17:58;100916.47;;;24.62;39.58
50852;BME280;43953;45.508;-122.806;2024-03-22T02:18:30;100909.00;;;24.62;39.46
50852;BME280;43953;45.508;-122.806;2024-03-22T02:19:01;100910.94;;;24.62;39.45
50852;BME280;43953;45.508;-122.806;2024-03-22T02:19:33;100917.28;;;24.62;39.65
50852;BME280;43953;45.508;-122.806;2024-03-22T02:20:05;100910.94;;;24.62;39.29
50852;BME280;43953;45.508;-122.806;2024-03-22T02:20:37;100905.44;;;24.62;39.41
50852;BME280;43953;45.508;-122.806;2024-03-22T02:21:09;100907.38;;;24.61;39.32
50852;BME280;43953;45.508;-122.806;2024-03-22T02:21:41;100909.28;;;24.61;39.21
50852;BME280;43953;45.508;-122.806;2024-03-22T02:22:12;100909.28;;;24.61;39.16
50852;BME280;43953;45.508;-122.806;2024-03-22T02:22:44;100908.19;;;24.62;39.23
50852;BME280;43953;45.508;-122.806;2024-03-22T02:23:16;100907.38;;;24.61;39.41
50852;BME280;43953;45.508;-122.806;2024-03-22T02:23:48;100915.66;;;24.61;39.17
50852;BME280;43953;45.508;-122.806;2024-03-22T02:24:19;100910.94;;;24.62;39.31
50852;BME280;43953;45.508;-122.806;2024-03-22T02:24:51;100910.94;;;24.62;39.33
50852;BME280;43953;45.508;-122.806;2024-03-22T02:25:23;100913.72;;;24.62;39.27
50852;BME280;43953;45.508;-122.806;2024-03-22T02:25:54;100910.13;;;24.61;39.09
50852;BME280;43953;45.508;-122.806;2024-03-22T02:26:26;100911.75;;;24.62;39.03
50852;BME280;43953;45.508;-122.806;2024-03-22T02:26:58;100910.94;;;24.62;39.04
50852;BME280;43953;45.508;-122.806;2024-03-22T02:27:30;100910.94;;;24.62;39.27
50852;BME280;43953;45.508;-122.806;2024-03-22T02:28:02;100914.53;;;24.62;39.32
50852;BME280;43953;45.508;-122.806;2024-03-22T02:28:35;100909.81;;;24.63;39.31
50852;BME280;43953;45.508;-122.806;2024-03-22T02:29:07;100911.75;;;24.62;39.42
50852;BME280;43953;45.508;-122.806;2024-03-22T02:29:38;100905.44;;;24.62;39.16
50852;BME280;43953;45.508;-122.806;2024-03-22T02:30:10;100911.75;;;24.62;39.22
50852;BME280;43953;45.508;-122.806;2024-03-22T02:30:42;100913.38;;;24.63;39.34
50852;BME280;43953;45.508;-122.806;2024-03-22T02:31:14;100905.13;;;24.63;39.67
50852;BME280;43953;45.508;-122.806;2024-03-22T02:31:46;100907.88;;;24.63;39.65
50852;BME280;43953;45.508;-122.806;2024-03-22T02:32:17;100911.97;;;24.66;39.74
50852;BME280;43953;45.508;-122.806;2024-03-22T02:32:49;100909.53;;;24.64;39.79
50852;BME280;43953;45.508;-122.806;2024-03-22T02:33:21;100909.22;;;24.66;39.88
50852;BME280;43953;45.508;-122.806;2024-03-22T02:33:53;100905.66;;;24.65;39.84
50852;BME280;43953;45.508;-122.806;2024-03-22T02:34:24;100909.22;;;24.66;41.07
50852;BME280;43953;45.508;-122.806;2024-03-22T02:34:56;100900.97;;;24.66;41.02
50852;BME280;43953;45.508;-122.806;2024-03-22T02:35:28;100909.22;;;24.66;41.13
50852;BME280;43953;45.508;-122.806;2024-03-22T02:35:59;100906.47;;;24.66;41.33
50852;BME280;43953;45.508;-122.806;2024-03-22T02:36:31;100911.97;;;24.66;41.06
50852;BME280;43953;45.508;-122.806;2024-03-22T02:37:03;100906.47;;;24.66;40.98
50852;BME280;43953;45.508;-122.806;2024-03-22T02:37:35;100903.72;;;24.66;41.30
50852;BME280;43953;45.508;-122.806;2024-03-22T02:38:07;100913.63;;;24.67;41.26
50852;BME280;43953;45.508;-122.806;2024-03-22T02:38:39;100909.75;;;24.68;41.27
50852;BME280;43953;45.508;-122.806;2024-03-22T02:39:10;100903.13;;;24.69;40.94
50852;BME280;43953;45.508;-122.806;2024-03-22T02:39:42;100903.94;;;24.69;41.05
50852;BME280;43953;45.508;-122.806;2024-03-22T02:40:14;100904.47;;;24.71;41.07